createdAt,value
2023-01-15T00:00:20.898Z,953.58
2023-01-15T00:01:21.037Z,953.55
2023-01-15T00:02:20.935Z,953.57
2023-01-15T00:03:20.935Z,953.54
2023-01-15T00:04:20.956Z,953.47
2023-01-15T00:05:20.921Z,953.5
2023-01-15T00:06:22.035Z,953.46
2023-01-15T00:07:20.972Z,953.43
2023-01-15T00:08:20.926Z,953.4
2023-01-15T00:09:20.883Z,953.46
2023-01-15T00:10:20.948Z,953.47
2023-01-15T00:11:20.922Z,953.38
2023-01-15T00:12:20.993Z,953.42
2023-01-15T00:13:20.960Z,953.46
2023-01-15T00:15:20.902Z,953.45
2023-01-15T00:16:20.903Z,953.41
2023-01-15T00:17:20.924Z,953.44
2023-01-15T00:18:21.012Z,953.45
2023-01-15T00:19:20.906Z,953.44
2023-01-15T00:20:21.050Z,953.38
2023-01-15T00:21:21.005Z,953.37
2023-01-15T00:22:20.980Z,953.38
2023-01-15T00:23:20.886Z,953.39
2023-01-15T00:24:21.002Z,953.41
2023-01-15T00:25:20.982Z,953.38
2023-01-15T00:26:21.044Z,953.4
2023-01-15T00:27:20.897Z,953.34
2023-01-15T00:28:20.976Z,953.39
2023-01-15T00:29:21.051Z,953.37
2023-01-15T00:32:21.064Z,953.39
2023-01-15T00:33:21.028Z,953.42
2023-01-15T00:34:20.923Z,953.37
2023-01-15T00:35:20.971Z,953.33
2023-01-15T00:36:21.027Z,953.29
2023-01-15T00:37:20.923Z,953.3
2023-01-15T00:38:21.064Z,953.26
2023-01-15T00:39:21.040Z,953.28
2023-01-15T00:40:21.004Z,953.3
2023-01-15T00:41:20.978Z,953.36
2023-01-15T00:42:21.042Z,953.34
2023-01-15T00:43:21.005Z,953.31
2023-01-15T00:44:20.971Z,953.32
2023-01-15T00:46:21.027Z,953.33
2023-01-15T00:47:20.972Z,953.29
2023-01-15T00:49:21.063Z,953.26
2023-01-15T00:50:20.970Z,953.27
2023-01-15T00:52:21.126Z,953.21
2023-01-15T00:53:20.977Z,953.2
2023-01-15T00:54:21.049Z,953.21
2023-01-15T00:55:21.125Z,953.23
2023-01-15T00:56:20.989Z,953.27
2023-01-15T00:58:22.336Z,953.25
2023-01-15T00:59:21.136Z,953.24
2023-01-15T01:00:21.079Z,953.2
2023-01-15T01:01:21.194Z,953.16
2023-01-15T01:02:21.017Z,953.14
2023-01-15T01:03:20.980Z,953.15
2023-01-15T01:04:21.174Z,953.12
2023-01-15T01:05:21.098Z,953.16
2023-01-15T01:06:21.101Z,953.15
2023-01-15T01:07:22.391Z,953.07
2023-01-15T01:08:21.131Z,953.05
2023-01-15T01:09:20.998Z,953.12
2023-01-15T01:10:21.062Z,953.07
2023-01-15T01:13:21.029Z,953.07
2023-01-15T01:14:21.149Z,953.05
2023-01-15T01:15:21.084Z,953.03
2023-01-15T01:16:21.073Z,952.98
2023-01-15T01:17:21.127Z,953.02
2023-01-15T01:18:21.102Z,952.94
2023-01-15T01:19:21.161Z,952.95
2023-01-15T01:20:21.027Z,952.98
2023-01-15T01:21:22.461Z,952.94
2023-01-15T01:22:21.177Z,952.92
2023-01-15T01:23:21.136Z,952.89
2023-01-15T01:24:21.117Z,952.9
2023-01-15T01:25:21.106Z,952.91
2023-01-15T01:26:21.136Z,952.86
2023-01-15T01:27:21.245Z,952.87
2023-01-15T01:28:21.051Z,952.84
2023-01-15T01:29:21.142Z,952.86
2023-01-15T01:30:21.208Z,952.8
2023-01-15T01:31:21.183Z,952.77
2023-01-15T01:32:21.144Z,952.81
2023-01-15T01:33:21.130Z,952.83
2023-01-15T01:35:21.148Z,952.85
2023-01-15T01:37:21.176Z,952.86
2023-01-15T01:39:21.349Z,952.89
2023-01-15T01:40:21.207Z,952.88
2023-01-15T01:41:21.163Z,952.87
2023-01-15T01:42:22.076Z,952.84
2023-01-15T01:43:21.185Z,952.83
2023-01-15T01:44:21.171Z,952.77
2023-01-15T01:45:21.125Z,952.69
2023-01-15T01:46:21.190Z,952.68
2023-01-15T01:47:21.191Z,952.65
2023-01-15T01:48:21.137Z,952.62
2023-01-15T01:49:21.245Z,952.53
2023-01-15T01:50:21.115Z,952.54
2023-01-15T01:51:22.138Z,952.58
2023-01-15T01:52:21.200Z,952.64
2023-01-15T01:53:21.177Z,952.6
2023-01-15T01:54:21.145Z,952.58
2023-01-15T01:57:21.327Z,952.62
2023-01-15T01:58:21.279Z,952.63
2023-01-15T01:59:21.173Z,952.64
2023-01-15T02:00:21.175Z,952.59
2023-01-15T02:01:21.347Z,952.57
2023-01-15T02:02:21.216Z,952.55
2023-01-15T02:03:21.157Z,952.53
2023-01-15T02:04:21.244Z,952.52
2023-01-15T02:05:21.193Z,952.5
2023-01-15T02:06:21.150Z,952.48
2023-01-15T02:07:21.148Z,952.46
2023-01-15T02:08:21.294Z,952.42
2023-01-15T02:09:21.144Z,952.38
2023-01-15T02:10:21.142Z,952.35
2023-01-15T02:11:21.140Z,952.34
2023-01-15T02:12:21.169Z,952.3
2023-01-15T02:13:21.152Z,952.32
2023-01-15T02:15:21.279Z,952.37
2023-01-15T02:16:21.280Z,952.34
2023-01-15T02:17:21.170Z,952.39
2023-01-15T02:18:21.262Z,952.41
2023-01-15T02:19:21.156Z,952.37
2023-01-15T02:20:22.294Z,952.35
2023-01-15T02:21:21.200Z,952.36
2023-01-15T02:22:21.232Z,952.35
2023-01-15T02:23:21.307Z,952.32
2023-01-15T02:24:21.164Z,952.3
2023-01-15T02:25:21.179Z,952.27
2023-01-15T02:26:21.181Z,952.26
2023-01-15T02:27:21.277Z,952.21
2023-01-15T02:28:21.192Z,952.19
2023-01-15T02:29:21.187Z,952.15
2023-01-15T02:31:21.316Z,952.09
2023-01-15T02:32:21.214Z,952.12
2023-01-15T02:33:21.179Z,952.08
2023-01-15T02:34:21.259Z,952.09
2023-01-15T02:35:21.212Z,952.11
2023-01-15T02:36:21.291Z,952.16
2023-01-15T02:37:21.256Z,952.18
2023-01-15T02:38:22.431Z,952.13
2023-01-15T02:39:21.218Z,952.14
2023-01-15T02:40:21.213Z,952.07
2023-01-15T02:41:21.226Z,952.04
2023-01-15T02:42:21.232Z,952
2023-01-15T02:43:21.380Z,951.96
2023-01-15T02:44:21.219Z,951.98
2023-01-15T02:45:21.308Z,951.99
2023-01-15T02:46:21.258Z,951.94
2023-01-15T02:47:21.226Z,951.92
2023-01-15T02:48:21.322Z,951.97
2023-01-15T02:49:21.273Z,951.94
2023-01-15T02:50:21.357Z,952
2023-01-15T02:51:21.334Z,951.96
2023-01-15T02:52:21.316Z,951.95
2023-01-15T02:53:21.248Z,951.94
2023-01-15T02:54:21.325Z,951.96
2023-01-15T02:55:21.239Z,951.94
2023-01-15T02:56:21.249Z,951.89
2023-01-15T02:57:21.326Z,951.85
2023-01-15T02:58:21.258Z,951.88
2023-01-15T02:59:21.276Z,951.91
2023-01-15T03:00:21.345Z,951.84
2023-01-15T03:01:21.481Z,951.86
2023-01-15T03:03:21.467Z,951.83
2023-01-15T03:04:22.566Z,951.82
2023-01-15T03:05:21.270Z,951.78
2023-01-15T03:06:21.321Z,951.82
2023-01-15T03:07:21.278Z,951.79
2023-01-15T03:09:21.265Z,951.82
2023-01-15T03:10:21.275Z,951.79
2023-01-15T03:11:21.317Z,951.78
2023-01-15T03:12:21.279Z,951.8
2023-01-15T03:13:21.280Z,951.77
2023-01-15T03:14:21.296Z,951.75
2023-01-15T03:15:21.338Z,951.73
2023-01-15T03:16:21.299Z,951.75
2023-01-15T03:17:21.325Z,951.67
2023-01-15T03:18:21.312Z,951.59
2023-01-15T03:19:21.301Z,951.57
2023-01-15T03:20:21.309Z,951.53
2023-01-15T03:21:21.313Z,951.52
2023-01-15T03:22:21.429Z,951.53
2023-01-15T03:23:21.318Z,951.54
2023-01-15T03:24:21.360Z,951.55
2023-01-15T03:25:21.330Z,951.51
2023-01-15T03:26:21.313Z,951.56
2023-01-15T03:27:21.455Z,951.53
2023-01-15T03:28:21.329Z,951.5
2023-01-15T03:29:21.329Z,951.46
2023-01-15T03:30:21.356Z,951.48
2023-01-15T03:31:21.342Z,951.45
2023-01-15T03:32:21.350Z,951.49
2023-01-15T03:33:21.476Z,951.47
2023-01-15T03:34:21.375Z,951.39
2023-01-15T03:35:21.347Z,951.38
2023-01-15T03:36:21.351Z,951.37
2023-01-15T03:37:21.366Z,951.38
2023-01-15T03:39:21.539Z,951.39
2023-01-15T03:40:21.355Z,951.43
2023-01-15T03:41:21.345Z,951.42
2023-01-15T03:42:21.490Z,951.34
2023-01-15T03:43:21.382Z,951.38
2023-01-15T03:44:21.481Z,951.36
2023-01-15T03:45:21.481Z,951.37
2023-01-15T03:46:21.412Z,951.42
2023-01-15T03:47:21.381Z,951.4
2023-01-15T03:48:21.383Z,951.3
2023-01-15T03:49:21.462Z,951.34
2023-01-15T03:50:21.402Z,951.3
2023-01-15T03:51:21.389Z,951.29
2023-01-15T03:52:21.387Z,951.28
2023-01-15T03:53:21.527Z,951.34
2023-01-15T03:54:21.417Z,951.37
2023-01-15T03:56:21.528Z,951.33
2023-01-15T03:57:21.557Z,951.3
2023-01-15T03:58:21.474Z,951.33
2023-01-15T03:59:21.405Z,951.35
2023-01-15T04:00:21.542Z,951.36
2023-01-15T04:01:21.533Z,951.34
2023-01-15T04:02:21.540Z,951.33
2023-01-15T04:03:21.499Z,951.31
2023-01-15T04:04:21.587Z,951.32
2023-01-15T04:05:21.554Z,951.31
2023-01-15T04:06:21.555Z,951.38
2023-01-15T04:07:21.497Z,951.42
2023-01-15T04:09:21.430Z,951.4
2023-01-15T04:10:21.510Z,951.43
2023-01-15T04:11:21.562Z,951.44
2023-01-15T04:13:21.511Z,951.38
2023-01-15T04:14:21.434Z,951.4
2023-01-15T04:16:21.443Z,951.3
2023-01-15T04:17:21.449Z,951.37
2023-01-15T04:18:21.530Z,951.38
2023-01-15T04:19:21.447Z,951.34
2023-01-15T04:20:21.567Z,951.3
2023-01-15T04:21:21.530Z,951.34
2023-01-15T04:22:21.601Z,951.29
2023-01-15T04:23:21.455Z,951.34
2023-01-15T04:24:21.540Z,951.3
2023-01-15T04:25:21.575Z,951.28
2023-01-15T04:26:21.459Z,951.32
2023-01-15T04:27:21.592Z,951.35
2023-01-15T04:28:21.491Z,951.37
2023-01-15T04:29:21.473Z,951.4
2023-01-15T04:30:21.459Z,951.38
2023-01-15T04:31:21.565Z,951.36
2023-01-15T04:32:21.579Z,951.31
2023-01-15T04:33:21.556Z,951.35
2023-01-15T04:35:21.589Z,951.26
2023-01-15T04:37:22.618Z,951.23
2023-01-15T04:38:21.483Z,951.18
2023-01-15T04:39:21.488Z,951.17
2023-01-15T04:40:21.477Z,951.23
2023-01-15T04:41:21.496Z,951.25
2023-01-15T04:42:21.547Z,951.2
2023-01-15T04:44:21.611Z,951.17
2023-01-15T04:45:21.607Z,951.2
2023-01-15T04:46:22.709Z,951.15
2023-01-15T04:47:21.601Z,951.18
2023-01-15T04:48:21.575Z,951.14
2023-01-15T04:49:21.520Z,951.12
2023-01-15T04:50:21.608Z,951.15
2023-01-15T04:51:21.514Z,951.04
2023-01-15T04:52:22.703Z,951.16
2023-01-15T04:53:21.604Z,951.17
2023-01-15T04:54:21.689Z,951.18
2023-01-15T04:55:21.528Z,951.23
2023-01-15T04:56:21.612Z,951.2
2023-01-15T04:57:21.536Z,951.27
2023-01-15T04:58:21.547Z,951.25
2023-01-15T04:59:21.546Z,951.2
2023-01-15T05:00:21.585Z,951.17
2023-01-15T05:01:21.757Z,951.09
2023-01-15T05:03:21.606Z,951.08
2023-01-15T05:04:21.719Z,951.06
2023-01-15T05:05:21.571Z,951.03
2023-01-15T05:06:21.702Z,951.02
2023-01-15T05:07:21.664Z,951
2023-01-15T05:08:21.562Z,951.01
2023-01-15T05:09:21.602Z,950.99
2023-01-15T05:10:21.558Z,951.01
2023-01-15T05:11:21.577Z,950.99
2023-01-15T05:13:21.690Z,950.95
2023-01-15T05:14:21.640Z,950.94
2023-01-15T05:16:21.662Z,950.93
2023-01-15T05:18:21.676Z,951.01
2023-01-15T05:19:21.593Z,950.94
2023-01-15T05:20:21.613Z,950.92
2023-01-15T05:21:22.884Z,950.89
2023-01-15T05:22:21.596Z,950.9
2023-01-15T05:23:21.751Z,950.89
2023-01-15T05:24:21.761Z,950.91
2023-01-15T05:27:21.616Z,950.9
2023-01-15T05:28:21.698Z,950.92
2023-01-15T05:29:21.607Z,950.88
2023-01-15T05:30:21.620Z,950.89
2023-01-15T05:31:21.683Z,950.85
2023-01-15T05:32:21.628Z,950.92
2023-01-15T05:33:21.735Z,950.89
2023-01-15T05:34:21.615Z,950.9
2023-01-15T05:35:21.828Z,950.89
2023-01-15T05:36:21.762Z,950.9
2023-01-15T05:37:21.696Z,950.89
2023-01-15T05:38:21.772Z,950.87
2023-01-15T05:39:21.734Z,950.88
2023-01-15T05:40:21.641Z,950.84
2023-01-15T05:41:21.824Z,950.8
2023-01-15T05:43:21.776Z,950.76
2023-01-15T05:44:21.665Z,950.73
2023-01-15T05:46:21.811Z,950.74
2023-01-15T05:47:21.651Z,950.75
2023-01-15T05:48:21.651Z,950.74
2023-01-15T05:49:21.719Z,950.75
2023-01-15T05:50:21.692Z,950.73
2023-01-15T05:51:21.664Z,950.67
2023-01-15T05:52:21.661Z,950.72
2023-01-15T05:53:21.670Z,950.7
2023-01-15T05:56:21.670Z,950.71
2023-01-15T05:57:21.792Z,950.73
2023-01-15T05:59:23.099Z,950.75
2023-01-15T06:00:21.760Z,950.78
2023-01-15T06:01:21.781Z,950.79
2023-01-15T06:02:21.742Z,950.76
2023-01-15T06:03:21.784Z,950.79
2023-01-15T06:04:21.690Z,950.8
2023-01-15T06:05:21.809Z,950.84
2023-01-15T06:06:21.775Z,950.81
2023-01-15T06:07:21.739Z,950.82
2023-01-15T06:08:21.809Z,950.8
2023-01-15T06:09:21.820Z,950.76
2023-01-15T06:10:21.696Z,950.7
2023-01-15T06:13:21.710Z,950.68
2023-01-15T06:14:21.828Z,950.66
2023-01-15T06:15:21.792Z,950.67
2023-01-15T06:16:21.910Z,950.69
2023-01-15T06:17:21.822Z,950.66
2023-01-15T06:18:21.792Z,950.68
2023-01-15T06:19:21.852Z,950.66
2023-01-15T06:20:21.764Z,950.65
2023-01-15T06:21:21.803Z,950.64
2023-01-15T06:22:21.729Z,950.7
2023-01-15T06:23:21.747Z,950.71
2023-01-15T06:24:21.731Z,950.67
2023-01-15T06:25:21.737Z,950.7
2023-01-15T06:26:21.789Z,950.73
2023-01-15T06:28:21.757Z,950.7
2023-01-15T06:29:21.836Z,950.74
2023-01-15T06:30:21.755Z,950.75
2023-01-15T06:32:21.852Z,950.71
2023-01-15T06:33:21.760Z,950.69
2023-01-15T06:34:21.760Z,950.7
2023-01-15T06:35:21.770Z,950.72
2023-01-15T06:36:21.830Z,950.78
2023-01-15T06:37:21.881Z,950.69
2023-01-15T06:38:21.850Z,950.64
2023-01-15T06:39:21.922Z,950.62
2023-01-15T06:40:21.775Z,950.57
2023-01-15T06:41:21.775Z,950.58
2023-01-15T06:43:21.885Z,950.57
2023-01-15T06:44:21.859Z,950.51
2023-01-15T06:45:21.822Z,950.54
2023-01-15T06:46:21.819Z,950.51
2023-01-15T06:47:22.493Z,950.56
2023-01-15T06:48:21.792Z,950.51
2023-01-15T06:50:21.797Z,950.51
2023-01-15T06:51:21.933Z,950.49
2023-01-15T06:52:21.897Z,950.43
2023-01-15T06:53:21.873Z,950.4
2023-01-15T06:54:21.850Z,950.39
2023-01-15T06:55:21.806Z,950.3
2023-01-15T06:56:21.878Z,950.31
2023-01-15T06:57:21.934Z,950.29
2023-01-15T06:58:21.921Z,950.26
2023-01-15T06:59:21.868Z,950.22
2023-01-15T07:00:22.975Z,950.21
2023-01-15T07:02:22.106Z,950.2
2023-01-15T07:03:21.820Z,950.17
2023-01-15T07:04:21.922Z,950.15
2023-01-15T07:05:23.011Z,950.1
2023-01-15T07:06:21.846Z,950.08
2023-01-15T07:07:21.936Z,950.07
2023-01-15T07:08:21.900Z,950.06
2023-01-15T07:09:21.832Z,950.07
2023-01-15T07:11:21.922Z,950.06
2023-01-15T07:12:21.856Z,950.02
2023-01-15T07:14:23.049Z,950.03
2023-01-15T07:15:21.863Z,950.01
2023-01-15T07:16:21.998Z,950.03
2023-01-15T07:17:21.853Z,950.04
2023-01-15T07:18:21.866Z,950.03
2023-01-15T07:19:21.874Z,950.04
2023-01-15T07:20:21.862Z,950.05
2023-01-15T07:21:21.972Z,950.03
2023-01-15T07:22:21.939Z,950.04
2023-01-15T07:23:21.923Z,950.06
2023-01-15T07:24:21.876Z,950.12
2023-01-15T07:25:21.882Z,950.13
2023-01-15T07:26:21.921Z,950.11
2023-01-15T07:28:21.884Z,950.16
2023-01-15T07:29:21.916Z,950.09
2023-01-15T07:30:21.894Z,950.13
2023-01-15T07:31:21.934Z,950.16
2023-01-15T07:32:21.930Z,950.09
2023-01-15T07:33:21.910Z,950.11
2023-01-15T07:34:22.063Z,950.09
2023-01-15T07:35:22.023Z,950.01
2023-01-15T07:36:21.900Z,950.03
2023-01-15T07:37:21.916Z,950.02
2023-01-15T07:39:21.999Z,950
2023-01-15T07:40:21.919Z,949.99
2023-01-15T07:41:23.242Z,949.93
2023-01-15T07:42:21.943Z,949.95
2023-01-15T07:43:21.983Z,949.99
2023-01-15T07:44:21.936Z,949.98
2023-01-15T07:45:22.065Z,949.95
2023-01-15T07:46:22.074Z,949.96
2023-01-15T07:47:21.940Z,949.93
2023-01-15T07:49:21.930Z,949.9
2023-01-15T07:50:21.935Z,949.91
2023-01-15T07:51:21.961Z,949.85
2023-01-15T07:52:22.081Z,949.84
2023-01-15T07:53:22.138Z,949.79
2023-01-15T07:54:22.036Z,949.76
2023-01-15T07:55:23.360Z,949.74
2023-01-15T07:56:21.951Z,949.75
2023-01-15T07:58:22.035Z,949.79
2023-01-15T07:59:22.063Z,949.77
2023-01-15T08:00:22.021Z,949.82
2023-01-15T08:02:22.040Z,949.85
2023-01-15T08:03:23.449Z,949.9
2023-01-15T08:04:22.096Z,949.93
2023-01-15T08:05:21.990Z,949.87
2023-01-15T08:06:21.985Z,949.97
2023-01-15T08:07:21.989Z,950.02
2023-01-15T08:08:22.070Z,949.97
2023-01-15T08:09:22.136Z,950.01
2023-01-15T08:10:22.122Z,950.02
2023-01-15T08:11:22.078Z,950.08
2023-01-15T08:13:22.142Z,950.14
2023-01-15T08:14:22.085Z,950.2
2023-01-15T08:15:21.998Z,950.16
2023-01-15T08:16:22.147Z,950.21
2023-01-15T08:17:22.072Z,950.18
2023-01-15T08:19:22.126Z,950.26
2023-01-15T08:20:22.100Z,950.31
2023-01-15T08:21:22.092Z,950.37
2023-01-15T08:22:22.132Z,950.4
2023-01-15T08:23:22.011Z,950.44
2023-01-15T08:24:23.050Z,950.52
2023-01-15T08:25:22.128Z,950.54
2023-01-15T08:26:22.117Z,950.62
2023-01-15T08:27:22.027Z,950.68
2023-01-15T08:28:22.059Z,950.71
2023-01-15T08:29:22.108Z,950.73
2023-01-15T08:30:22.056Z,950.77
2023-01-15T08:31:22.126Z,950.71
2023-01-15T08:32:22.036Z,950.77
2023-01-15T08:33:23.153Z,950.71
2023-01-15T08:34:22.051Z,950.87
2023-01-15T08:35:36.902Z,950.9
2023-01-15T08:37:37.061Z,950.91
2023-01-15T08:38:36.879Z,950.92
2023-01-15T08:39:36.845Z,950.91
2023-01-15T08:40:36.919Z,951.05
2023-01-15T08:42:36.879Z,951.08
2023-01-15T08:43:36.870Z,951.1
2023-01-15T08:45:36.979Z,951.2
2023-01-15T08:46:36.999Z,951.16
2023-01-15T08:49:36.982Z,951.22
2023-01-15T08:50:36.974Z,951.26
2023-01-15T08:51:36.889Z,951.23
2023-01-15T08:52:36.883Z,951.29
2023-01-15T08:53:36.887Z,951.34
2023-01-15T08:54:36.941Z,951.46
2023-01-15T08:55:36.889Z,951.56
2023-01-15T08:56:38.236Z,951.63
2023-01-15T08:57:36.898Z,951.65
2023-01-15T08:58:36.903Z,951.62
2023-01-15T08:59:36.902Z,951.6
2023-01-15T09:00:36.933Z,951.57
2023-01-15T09:03:38.369Z,951.59
2023-01-15T09:04:37.064Z,951.6
2023-01-15T09:05:36.924Z,951.58
2023-01-15T09:06:36.913Z,951.64
2023-01-15T09:07:36.952Z,951.73
2023-01-15T09:08:37.001Z,951.86
2023-01-15T09:09:36.929Z,951.88
2023-01-15T09:10:37.031Z,951.92
2023-01-15T09:11:37.022Z,951.89
2023-01-15T09:12:36.965Z,951.91
2023-01-15T09:13:37.045Z,951.94
2023-01-15T09:14:56.249Z,951.97
2023-01-15T09:15:37.158Z,952
2023-01-15T09:16:37.114Z,952.02
2023-01-15T09:18:37.083Z,952.11
2023-01-15T09:19:36.947Z,952.13
2023-01-15T09:20:36.946Z,952.12
2023-01-15T09:21:36.992Z,952.15
2023-01-15T09:22:36.950Z,952.22
2023-01-15T09:23:36.981Z,952.26
2023-01-15T09:24:37.073Z,952.35
2023-01-15T09:25:37.099Z,952.32
2023-01-15T09:26:37.031Z,952.37
2023-01-15T09:29:37.025Z,952.38
2023-01-15T09:30:37.019Z,952.41
2023-01-15T09:31:37.189Z,952.45
2023-01-15T09:32:37.128Z,952.46
2023-01-15T09:33:37.091Z,952.48
2023-01-15T09:34:37.057Z,952.54
2023-01-15T09:35:36.982Z,952.59
2023-01-15T09:36:38.603Z,952.6
2023-01-15T09:37:37.022Z,952.62
2023-01-15T09:38:36.998Z,952.67
2023-01-15T09:39:37.102Z,952.71
2023-01-15T09:41:37.193Z,952.8
2023-01-15T09:42:37.078Z,952.77
2023-01-15T09:45:37.186Z,952.8
2023-01-15T09:46:37.025Z,952.79
2023-01-15T09:47:37.029Z,952.82
2023-01-15T09:48:37.110Z,952.88
2023-01-15T09:49:37.029Z,952.93
2023-01-15T09:50:37.081Z,952.96
2023-01-15T09:51:37.052Z,953
2023-01-15T09:52:37.035Z,953.02
2023-01-15T09:53:37.164Z,953
2023-01-15T09:54:37.117Z,953.03
2023-01-15T09:55:37.188Z,953.08
2023-01-15T09:56:37.048Z,953.16
2023-01-15T09:57:37.163Z,953.21
2023-01-15T09:58:37.205Z,953.2
2023-01-15T09:59:37.063Z,953.3
2023-01-15T10:00:37.045Z,953.23
2023-01-15T10:01:37.207Z,953.27
2023-01-15T10:02:37.182Z,953.29
2023-01-15T10:03:37.326Z,953.3
2023-01-15T10:04:37.075Z,953.36
2023-01-15T10:05:37.079Z,953.37
2023-01-15T10:06:37.067Z,953.44
2023-01-15T10:07:37.201Z,953.47
2023-01-15T10:08:37.078Z,953.5
2023-01-15T10:09:37.069Z,953.53
2023-01-15T10:10:38.203Z,953.54
2023-01-15T10:11:37.175Z,953.58
2023-01-15T10:12:37.149Z,953.6
2023-01-15T10:13:37.084Z,953.66
2023-01-15T10:15:37.197Z,953.7
2023-01-15T10:16:37.123Z,953.75
2023-01-15T10:17:37.189Z,953.81
2023-01-15T10:18:37.085Z,953.85
2023-01-15T10:19:44.279Z,953.86
2023-01-15T10:20:37.193Z,953.88
2023-01-15T10:21:37.094Z,953.92
2023-01-15T10:22:37.092Z,953.85
2023-01-15T10:23:37.203Z,953.86
2023-01-15T10:24:37.259Z,953.93
2023-01-15T10:25:37.106Z,953.91
2023-01-15T10:26:37.117Z,953.94
2023-01-15T10:27:37.113Z,953.97
2023-01-15T10:28:37.247Z,954
2023-01-15T10:29:37.204Z,953.99
2023-01-15T10:30:37.121Z,954.04
2023-01-15T10:31:37.230Z,954.02
2023-01-15T10:32:37.201Z,954.1
2023-01-15T10:33:37.168Z,954.11
2023-01-15T10:34:37.141Z,954.19
2023-01-15T10:35:37.201Z,954.25
2023-01-15T10:36:37.342Z,954.3
2023-01-15T10:37:37.254Z,954.32
2023-01-15T10:38:37.212Z,954.37
2023-01-15T10:39:37.122Z,954.44
2023-01-15T10:40:37.147Z,954.45
2023-01-15T10:41:37.249Z,954.51
2023-01-15T10:42:37.274Z,954.57
2023-01-15T10:43:37.133Z,954.6
2023-01-15T10:44:37.153Z,954.69
2023-01-15T10:45:37.142Z,954.73
2023-01-15T10:46:37.293Z,954.8
2023-01-15T10:47:37.219Z,954.83
2023-01-15T10:48:37.152Z,954.9
2023-01-15T10:49:37.157Z,954.95
2023-01-15T10:50:37.161Z,954.9
2023-01-15T10:51:37.293Z,954.92
2023-01-15T10:53:37.421Z,955
2023-01-15T10:54:37.219Z,955.04
2023-01-15T10:55:37.270Z,955.02
2023-01-15T10:56:37.172Z,955.04
2023-01-15T10:57:37.312Z,955.12
2023-01-15T10:58:37.180Z,955.18
2023-01-15T10:59:37.357Z,955.23
2023-01-15T11:00:37.314Z,955.18
2023-01-15T11:02:37.365Z,955.21
2023-01-15T11:03:37.187Z,955.29
2023-01-15T11:04:37.274Z,955.34
2023-01-15T11:05:37.189Z,955.42
2023-01-15T11:06:37.192Z,955.47
2023-01-15T11:07:37.206Z,955.55
2023-01-15T11:09:07.037Z,955.57
2023-01-15T11:09:37.342Z,955.61
2023-01-15T11:11:37.435Z,955.69
2023-01-15T11:12:37.225Z,955.71
2023-01-15T11:13:37.291Z,955.76
2023-01-15T11:14:37.225Z,955.7
2023-01-15T11:15:37.259Z,955.74
2023-01-15T11:16:37.300Z,955.76
2023-01-15T11:17:37.235Z,955.8
2023-01-15T11:18:37.335Z,955.81
2023-01-15T11:19:37.240Z,955.86
2023-01-15T11:20:39.086Z,955.83
2023-01-15T11:21:37.238Z,955.87
2023-01-15T11:22:37.302Z,955.9
2023-01-15T11:23:37.389Z,955.91
2023-01-15T11:24:37.247Z,955.97
2023-01-15T11:25:37.247Z,955.99
2023-01-15T11:26:37.241Z,956.04
2023-01-15T11:27:37.339Z,956.03
2023-01-15T11:28:37.255Z,956.05
2023-01-15T11:29:37.269Z,956.04
2023-01-15T11:30:37.359Z,956.1
2023-01-15T11:31:37.312Z,956.08
2023-01-15T11:33:37.306Z,956.12
2023-01-15T11:34:37.450Z,956.2
2023-01-15T11:35:37.271Z,956.22
2023-01-15T11:36:37.271Z,956.28
2023-01-15T11:37:37.285Z,956.27
2023-01-15T11:38:37.407Z,956.3
2023-01-15T11:40:37.339Z,956.27
2023-01-15T11:41:37.417Z,956.28
2023-01-15T11:42:37.296Z,956.3
2023-01-15T11:44:37.366Z,956.4
2023-01-15T11:45:37.304Z,956.45
2023-01-15T11:47:37.444Z,956.52
2023-01-15T11:49:37.358Z,956.55
2023-01-15T11:50:37.312Z,956.56
2023-01-15T11:51:37.380Z,956.6
2023-01-15T11:52:37.450Z,956.63
2023-01-15T11:53:37.412Z,956.62
2023-01-15T11:54:37.412Z,956.65
2023-01-15T11:55:37.453Z,956.67
2023-01-15T11:56:37.351Z,956.72
2023-01-15T11:57:37.313Z,956.76
2023-01-15T11:58:37.337Z,956.74
2023-01-15T12:00:37.466Z,956.73
2023-01-15T12:02:37.386Z,956.74
2023-01-15T12:03:37.487Z,956.75
2023-01-15T12:04:37.409Z,956.8
2023-01-15T12:05:37.346Z,956.79
2023-01-15T12:06:37.355Z,956.84
2023-01-15T12:07:37.360Z,956.85
2023-01-15T12:08:37.454Z,956.84
2023-01-15T12:09:37.382Z,956.87
2023-01-15T12:10:37.408Z,956.93
2023-01-15T12:11:37.363Z,956.97
2023-01-15T12:12:37.411Z,957
2023-01-15T12:13:37.360Z,957.05
2023-01-15T12:14:37.451Z,957.09
2023-01-15T12:15:37.375Z,957.12
2023-01-15T12:16:37.362Z,957.13
2023-01-15T12:17:37.620Z,957.11
2023-01-15T12:18:37.382Z,957.15
2023-01-15T12:19:37.405Z,957.16
2023-01-15T12:20:37.389Z,957.2
2023-01-15T12:22:37.573Z,957.17
2023-01-15T12:23:37.560Z,957.2
2023-01-15T12:24:37.418Z,957.21
2023-01-15T12:25:37.409Z,957.19
2023-01-15T12:26:37.395Z,957.24
2023-01-15T12:27:37.403Z,957.2
2023-01-15T12:28:37.416Z,957.22
2023-01-15T12:29:37.482Z,957.21
2023-01-15T12:30:37.432Z,957.23
2023-01-15T12:31:37.473Z,957.2
2023-01-15T12:32:37.489Z,957.17
2023-01-15T12:33:37.456Z,957.23
2023-01-15T12:34:37.516Z,957.21
2023-01-15T12:35:37.421Z,957.24
2023-01-15T12:36:37.419Z,957.21
2023-01-15T12:37:37.497Z,957.24
2023-01-15T12:38:37.448Z,957.27
2023-01-15T12:39:37.474Z,957.28
2023-01-15T12:40:37.432Z,957.27
2023-01-15T12:41:37.463Z,957.2
2023-01-15T12:42:37.434Z,957.29
2023-01-15T12:44:38.404Z,957.33
2023-01-15T12:45:37.579Z,957.32
2023-01-15T12:46:37.478Z,957.33
2023-01-15T12:47:37.642Z,957.34
2023-01-15T12:48:37.445Z,957.35
2023-01-15T12:49:37.461Z,957.36
2023-01-15T12:50:37.495Z,957.31
2023-01-15T12:51:37.566Z,957.32
2023-01-15T12:52:37.530Z,957.33
2023-01-15T12:53:37.478Z,957.4
2023-01-15T12:54:37.487Z,957.38
2023-01-15T12:55:37.467Z,957.33
2023-01-15T12:56:37.492Z,957.37
2023-01-15T12:57:37.481Z,957.4
2023-01-15T12:59:37.617Z,957.43
2023-01-15T13:00:37.508Z,957.41
2023-01-15T13:01:37.657Z,957.44
2023-01-15T13:04:37.572Z,957.49
2023-01-15T13:05:37.519Z,957.46
2023-01-15T13:06:37.533Z,957.48
2023-01-15T13:07:37.545Z,957.51
2023-01-15T13:08:37.626Z,957.52
2023-01-15T13:09:37.663Z,957.51
2023-01-15T13:10:37.658Z,957.49
2023-01-15T13:12:37.515Z,957.48
2023-01-15T13:13:37.512Z,957.45
2023-01-15T13:14:37.537Z,957.32
2023-01-15T13:15:37.514Z,957.34
2023-01-15T13:16:37.698Z,957.3
2023-01-15T13:17:37.537Z,957.26
2023-01-15T13:18:37.610Z,957.22
2023-01-15T13:19:37.546Z,957.13
2023-01-15T13:20:37.533Z,957.14
2023-01-15T13:21:37.618Z,957.15
2023-01-15T13:22:37.688Z,957.1
2023-01-15T13:23:37.635Z,957.15
2023-01-15T13:24:37.644Z,957.24
2023-01-15T13:25:37.532Z,957.17
2023-01-15T13:26:37.654Z,957.19
2023-01-15T13:28:37.769Z,957.15
2023-01-15T13:29:37.689Z,957.23
2023-01-15T13:30:37.664Z,957.19
2023-01-15T13:31:37.606Z,957.21
2023-01-15T13:32:37.582Z,957.26
2023-01-15T13:33:37.628Z,957.28
2023-01-15T13:34:37.558Z,957.29
2023-01-15T13:36:37.684Z,957.28
2023-01-15T13:37:37.615Z,957.32
2023-01-15T13:40:37.651Z,957.33
2023-01-15T13:41:37.792Z,957.25
2023-01-15T13:42:37.582Z,957.35
2023-01-15T13:43:37.563Z,957.36
2023-01-15T13:44:37.585Z,957.35
2023-01-15T13:45:37.698Z,957.38
2023-01-15T13:46:37.600Z,957.4
2023-01-15T13:47:37.611Z,957.44
2023-01-15T13:49:37.587Z,957.41
2023-01-15T13:50:37.683Z,957.42
2023-01-15T13:52:37.817Z,957.47
2023-01-15T13:53:37.699Z,957.46
2023-01-15T13:54:37.622Z,957.48
2023-01-15T13:55:37.739Z,957.51
2023-01-15T13:56:37.691Z,957.5
2023-01-15T13:57:38.897Z,957.48
2023-01-15T13:58:37.621Z,957.46
2023-01-15T13:59:37.620Z,957.48
2023-01-15T14:01:37.860Z,957.53
2023-01-15T14:02:37.702Z,957.55